createdAt,value
2017-09-24T00:00:03.705Z,34.87
2017-09-24T00:05:31.864Z,36.10
2017-09-24T00:11:00.020Z,33.77
2017-09-24T00:16:28.166Z,33.80
2017-09-24T00:21:56.312Z,34.70
2017-09-24T00:27:24.466Z,37.13
2017-09-24T00:32:52.648Z,31.13
2017-09-24T00:38:20.806Z,36.93
2017-09-24T00:43:48.966Z,40.40
2017-09-24T00:49:17.130Z,39.40
2017-09-24T00:54:45.271Z,39.07
2017-09-24T01:00:13.411Z,41.90
2017-09-24T01:05:41.651Z,35.50
2017-09-24T01:11:09.895Z,37.13
2017-09-24T01:16:38.821Z,34.37
2017-09-24T01:22:07.128Z,33.33
2017-09-24T01:27:35.385Z,33.20
2017-09-24T01:33:03.608Z,31.40
2017-09-24T01:38:31.761Z,30.57
2017-09-24T01:43:59.906Z,33.80
2017-09-24T01:49:28.059Z,34.07
2017-09-24T01:54:56.203Z,30.80
2017-09-24T02:00:24.359Z,30.90
2017-09-24T02:05:53.308Z,33.47
2017-09-24T02:11:22.235Z,25.97
2017-09-24T02:16:50.370Z,25.87
2017-09-24T02:22:19.274Z,24.53
2017-09-24T02:27:47.427Z,23.20
2017-09-24T02:33:15.570Z,24.37
2017-09-24T02:38:43.706Z,21.40
2017-09-24T02:44:11.853Z,21.60
2017-09-24T02:49:40.759Z,22.77
2017-09-24T02:55:08.999Z,23.80
2017-09-24T03:00:37.152Z,22.80
2017-09-24T03:06:05.285Z,21.00
2017-09-24T03:11:34.204Z,28.50
2017-09-24T03:17:02.360Z,25.07
2017-09-24T03:22:30.499Z,24.30
2017-09-24T03:27:58.634Z,25.50
2017-09-24T03:33:27.557Z,25.57
2017-09-24T03:38:55.695Z,24.83
2017-09-24T03:44:23.836Z,24.33
2017-09-24T03:49:52.749Z,20.03
2017-09-24T03:55:20.878Z,20.10
2017-09-24T04:00:49.087Z,19.33
2017-09-24T04:06:17.241Z,26.43
2017-09-24T04:11:45.383Z,25.60
2017-09-24T04:17:13.556Z,19.33
2017-09-24T04:22:41.699Z,23.83
2017-09-24T04:28:09.841Z,25.23
2017-09-24T04:33:37.984Z,24.90
2017-09-24T04:39:06.886Z,25.13
2017-09-24T04:44:35.018Z,23.10
2017-09-24T04:50:03.174Z,27.23
2017-09-24T04:55:31.419Z,27.13
2017-09-24T05:01:00.364Z,21.53
2017-09-24T05:06:28.519Z,21.87
2017-09-24T05:11:56.661Z,25.20
2017-09-24T05:17:24.804Z,25.23
2017-09-24T05:22:52.935Z,22.43
2017-09-24T05:28:21.847Z,19.37
2017-09-24T05:33:49.987Z,18.60
2017-09-24T05:39:18.119Z,25.17
2017-09-24T05:44:47.048Z,21.07
2017-09-24T05:50:15.201Z,26.63
2017-09-24T05:55:44.301Z,24.27
2017-09-24T06:01:12.468Z,25.73
2017-09-24T06:06:40.620Z,21.27
2017-09-24T06:12:08.766Z,23.33
2017-09-24T06:17:36.898Z,25.93
2017-09-24T06:23:05.053Z,24.40
2017-09-24T06:28:33.232Z,26.47
2017-09-24T06:34:05.823Z,29.87
2017-09-24T06:39:33.993Z,25.23
2017-09-24T06:45:02.919Z,26.63
2017-09-24T06:50:31.085Z,31.27
2017-09-24T06:55:59.256Z,27.30
2017-09-24T07:01:27.425Z,28.73
2017-09-24T07:06:55.585Z,32.10
2017-09-24T07:12:23.735Z,35.83
2017-09-24T07:17:51.926Z,33.33
2017-09-24T07:23:21.079Z,35.70
2017-09-24T07:28:49.259Z,33.80
2017-09-24T07:34:18.211Z,41.27
2017-09-24T07:39:46.384Z,37.03
2017-09-24T07:45:14.546Z,42.20
2017-09-24T07:50:42.699Z,48.97
2017-09-24T07:56:10.848Z,42.60
2017-09-24T08:01:38.988Z,38.57
2017-09-24T08:07:07.154Z,40.03
2017-09-24T08:12:35.302Z,32.87
2017-09-24T08:18:03.539Z,34.93
2017-09-24T08:23:31.703Z,31.00
2017-09-24T08:28:59.858Z,32.77
2017-09-24T08:34:29.174Z,31.80
2017-09-24T08:39:59.432Z,28.90
2017-09-24T08:45:27.680Z,31.53
2017-09-24T08:50:56.064Z,36.00
2017-09-24T08:56:24.459Z,38.67
2017-09-24T09:01:52.746Z,32.10
2017-09-24T09:07:21.146Z,34.20
2017-09-24T09:12:49.306Z,35.17
2017-09-24T09:18:20.834Z,27.60
2017-09-24T09:23:51.250Z,28.00
2017-09-24T09:29:19.514Z,18.33
2017-09-24T09:35:05.703Z,25.53
2017-09-24T09:40:33.934Z,23.00
2017-09-24T09:46:05.928Z,22.17
2017-09-24T09:51:34.105Z,20.63
2017-09-24T09:57:02.251Z,25.80
2017-09-24T10:02:30.454Z,19.43
2017-09-24T10:14:17.254Z,19.93
2017-09-24T10:19:45.416Z,25.53
2017-09-24T10:25:13.563Z,18.00
2017-09-24T10:30:58.277Z,20.30
2017-09-24T10:36:26.462Z,16.67
2017-09-24T10:41:55.366Z,16.83
2017-09-24T10:47:23.524Z,14.77
2017-09-24T10:52:51.694Z,16.53
2017-09-24T10:58:19.868Z,18.07
2017-09-24T11:03:48.027Z,14.70
2017-09-24T11:09:16.207Z,18.40
2017-09-24T11:14:44.351Z,13.07
2017-09-24T11:20:12.530Z,13.10
2017-09-24T11:25:40.706Z,13.23
2017-09-24T11:31:09.662Z,16.10
2017-09-24T11:36:39.602Z,14.87
2017-09-24T11:42:07.903Z,11.80
2017-09-24T11:47:37.143Z,13.97
2017-09-24T11:53:05.314Z,13.47
2017-09-24T11:58:33.522Z,12.13
2017-09-24T12:04:01.944Z,16.47
2017-09-24T12:09:30.107Z,12.70
2017-09-24T12:14:58.261Z,13.17
2017-09-24T12:20:26.437Z,14.87
2017-09-24T12:25:54.609Z,13.33
2017-09-24T12:31:22.763Z,17.73
2017-09-24T12:36:50.949Z,12.73
2017-09-24T12:42:21.126Z,12.83
2017-09-24T12:47:49.266Z,12.20
2017-09-24T12:53:17.527Z,9.17
2017-09-24T12:58:45.687Z,10.70
2017-09-24T13:04:13.916Z,7.77
2017-09-24T13:09:49.663Z,7.30
2017-09-24T13:15:17.860Z,7.63
2017-09-24T13:20:46.007Z,8.20
2017-09-24T13:26:14.164Z,12.47
2017-09-24T13:31:42.314Z,11.07
2017-09-24T13:37:10.461Z,11.73
2017-09-24T13:42:38.624Z,12.77
2017-09-24T13:48:06.792Z,13.97
2017-09-24T13:53:34.944Z,14.80
2017-09-24T13:59:03.108Z,11.93
2017-09-24T14:04:31.248Z,11.60
2017-09-24T14:09:59.407Z,15.27
2017-09-24T14:15:27.574Z,9.60
2017-09-24T14:20:55.735Z,10.33
2017-09-24T14:26:23.893Z,8.50
2017-09-24T14:31:52.044Z,8.40
2017-09-24T14:37:20.192Z,9.10
2017-09-24T14:42:48.452Z,8.90
2017-09-24T14:48:16.605Z,6.60
2017-09-24T14:53:44.784Z,8.07
2017-09-24T14:59:13.108Z,10.10
2017-09-24T15:04:41.351Z,11.70
2017-09-24T15:10:12.253Z,12.33
2017-09-24T15:15:40.409Z,10.93
2017-09-24T15:21:08.554Z,12.07
2017-09-24T15:26:36.839Z,10.90
2017-09-24T15:32:05.736Z,16.03
2017-09-24T15:37:33.910Z,11.70
2017-09-24T15:43:02.128Z,11.80
2017-09-24T15:48:30.288Z,11.10
2017-09-24T15:53:58.446Z,16.47
2017-09-24T15:59:27.373Z,15.70
2017-09-24T16:04:55.588Z,14.60
2017-09-24T16:10:24.016Z,16.13
2017-09-24T16:15:52.221Z,16.47
2017-09-24T16:21:20.470Z,19.53
2017-09-24T16:26:49.401Z,18.33
2017-09-24T16:32:18.800Z,18.63
2017-09-24T16:37:47.045Z,20.43
2017-09-24T16:43:15.235Z,17.30
2017-09-24T16:48:43.640Z,22.17
2017-09-24T16:54:11.810Z,20.07
2017-09-24T16:59:39.978Z,24.27
2017-09-24T17:05:08.187Z,26.70
2017-09-24T17:10:37.106Z,27.00
2017-09-24T17:16:05.263Z,28.43
2017-09-24T17:21:33.433Z,25.57
2017-09-24T17:27:01.606Z,24.10
2017-09-24T17:32:29.770Z,28.83
2017-09-24T17:37:57.915Z,29.00
2017-09-24T17:43:26.092Z,31.97
2017-09-24T17:48:54.248Z,28.87
2017-09-24T17:54:22.423Z,29.73
2017-09-24T17:59:51.392Z,31.20
2017-09-24T18:05:19.561Z,26.07
2017-09-24T18:10:47.737Z,13.60
2017-09-24T18:16:15.900Z,13.67
2017-09-24T18:21:44.054Z,16.53
2017-09-24T18:27:12.381Z,14.03
2017-09-24T18:32:40.537Z,14.97
2017-09-24T18:38:09.627Z,16.30
2017-09-24T18:43:37.771Z,14.43
2017-09-24T18:49:05.960Z,19.33
2017-09-24T18:54:34.123Z,18.40
2017-09-24T19:00:03.166Z,18.90
2017-09-24T19:05:31.335Z,19.47
2017-09-24T19:10:59.500Z,16.20
2017-09-24T19:16:28.412Z,16.50
2017-09-24T19:21:56.568Z,17.17
2017-09-24T19:27:24.722Z,14.77
2017-09-24T19:32:52.889Z,19.73
2017-09-24T19:38:21.055Z,18.97
2017-09-24T19:43:49.217Z,20.33
2017-09-24T19:49:17.393Z,20.20
2017-09-24T19:54:45.553Z,20.77
2017-09-24T20:00:13.716Z,23.07
2017-09-24T20:05:41.882Z,21.10
2017-09-24T20:11:10.053Z,24.47
2017-09-24T20:16:39.891Z,25.97
2017-09-24T20:22:08.055Z,23.67
2017-09-24T20:27:36.222Z,25.33
2017-09-24T20:33:04.381Z,28.40
2017-09-24T20:38:32.549Z,28.63
2017-09-24T20:44:00.695Z,24.93
2017-09-24T20:49:28.836Z,28.33
2017-09-24T20:54:56.979Z,30.57
2017-09-24T21:00:26.133Z,30.17
2017-09-24T21:05:55.056Z,28.30
2017-09-24T21:11:23.238Z,27.83
2017-09-24T21:16:51.392Z,33.27
2017-09-24T21:22:19.546Z,31.57
2017-09-24T21:27:47.759Z,30.57
2017-09-24T21:33:16.680Z,36.83
2017-09-24T21:38:44.852Z,33.73
2017-09-24T21:44:13.016Z,35.70
2017-09-24T21:49:41.178Z,38.90
2017-09-24T21:55:09.565Z,30.10
2017-09-24T22:00:37.763Z,29.97
2017-09-24T22:06:05.998Z,28.67
2017-09-24T22:11:34.187Z,26.67
2017-09-24T22:17:02.474Z,29.43
2017-09-24T22:22:30.713Z,31.30
2017-09-24T22:27:58.968Z,28.87
2017-09-24T22:33:27.144Z,33.97
2017-09-24T22:38:55.936Z,32.43
2017-09-24T22:44:26.042Z,29.40
2017-09-24T22:49:54.333Z,29.20
2017-09-24T22:55:22.598Z,30.50
2017-09-24T23:00:50.786Z,29.80
2017-09-24T23:06:18.988Z,28.90
2017-09-24T23:11:47.919Z,25.60
2017-09-24T23:17:16.074Z,26.53
2017-09-24T23:22:44.217Z,27.53
2017-09-24T23:28:12.459Z,27.33
2017-09-24T23:33:41.366Z,26.73
2017-09-24T23:39:09.526Z,28.57
2017-09-24T23:44:37.658Z,30.23
2017-09-24T23:50:05.805Z,25.90
2017-09-24T23:55:34.717Z,29.87
